Back to Top

Language: 

My Weather Underground Personal Weather Station Historical Data with Graphs...

Delerius Weather Station Historical Data
Daily Summary for December 27, 2017 Units:  English    Metric   Both
« Previous Day
Next Day »
Daily Weekly Monthly Yearly Custom
  High: Low: Average:
Temperature: 37.6 °F 32.5 °F 35.4 °F
Dew Point: 34.8 °F 27.4 °F 31.3 °F
Humidity: 94 % 73 % 85 %
Wind Speed: 15.0 mph 3.0 mph 8.4 mph
Wind Gust: 23.0 mph - -
Wind:- - WNW
Pressure: 29.46 in 29.08 in -
Precipitation: 0.04 in    
Historical Graphs
 
 
Tabular Data for December 27, 2017
Time Temperature Dew Point Pressure Wind Wind Speed Wind Gust Humidity Rainfall Rate (Hourly) solar Conditions
00:00 36.3 °F 34.8 °F 29.10 in NNE 9.0 mph 15.0 mph 94 % 0.01 in 0 W/m2
00:05 36.3 °F 34.8 °F 29.10 in NNE 5.0 mph 10.0 mph 94 % 0.01 in 0 W/m2
00:10 36.1 °F 34.6 °F 29.10 in NNE 8.0 mph 13.0 mph 94 % 0.01 in 0 W/m2
00:13 36.1 °F 34.6 °F 29.10 in NNE 6.0 mph 13.0 mph 94 % 0.01 in 0 W/m2
00:15 36.1 °F 34.6 °F 29.10 in NNE 7.0 mph 13.0 mph 94 % 0.01 in 0 W/m2
00:18 36.0 °F 34.4 °F 29.10 in NNE 6.0 mph 11.0 mph 94 % 0.01 in 0 W/m2
00:23 35.8 °F 34.2 °F 29.10 in NNE 8.0 mph 12.0 mph 94 % 0.01 in 0 W/m2
00:25 35.8 °F 34.2 °F 29.10 in NNE 6.0 mph 12.0 mph 94 % 0.01 in 0 W/m2
00:30 35.8 °F 34.2 °F 29.10 in NNE 7.0 mph 13.0 mph 94 % 0.01 in 0 W/m2
00:35 35.8 °F 34.2 °F 29.09 in NNE 5.0 mph 11.0 mph 94 % 0.01 in 0 W/m2
00:38 35.8 °F 34.2 °F 29.09 in NNE 6.0 mph 11.0 mph 94 % 0.01 in 0 W/m2
00:39 35.8 °F 34.2 °F 29.09 in NNE 7.0 mph 12.0 mph 94 % 0.01 in 0 W/m2
00:44 35.6 °F 34.0 °F 29.09 in NNE 8.0 mph 16.0 mph 94 % 0.02 in 0 W/m2
00:49 35.6 °F 34.0 °F 29.09 in NNE 7.0 mph 15.0 mph 94 % 0.02 in 0 W/m2
00:53 35.4 °F 33.9 °F 29.09 in NNE 8.0 mph 12.0 mph 94 % 0.01 in 0 W/m2
00:58 35.4 °F 33.9 °F 29.09 in North 7.0 mph 12.0 mph 94 % 0.01 in 0 W/m2
01:03 35.2 °F 33.7 °F 29.08 in North 8.0 mph 15.0 mph 94 % 0.02 in 0 W/m2
01:08 35.2 °F 33.7 °F 29.08 in North 7.0 mph 11.0 mph 94 % 0.02 in 0 W/m2
01:11 35.2 °F 33.7 °F 29.09 in NNE 9.0 mph 18.0 mph 94 % 0.02 in 0 W/m2
01:14 35.2 °F 33.7 °F 29.08 in North 7.0 mph 11.0 mph 94 % 0.02 in 0 W/m2
01:19 35.2 °F 33.7 °F 29.08 in North 8.0 mph 15.0 mph 94 % 0.02 in 0 W/m2
01:24 35.2 °F 33.7 °F 29.09 in NNE 8.0 mph 14.0 mph 94 % 0.02 in 0 W/m2
01:25 35.2 °F 33.7 °F 29.09 in North 7.0 mph 13.0 mph 94 % 0.02 in 0 W/m2
01:26 35.2 °F 33.7 °F 29.08 in North 6.0 mph 10.0 mph 94 % 0.02 in 0 W/m2
01:31 35.2 °F 33.7 °F 29.09 in North 9.0 mph 16.0 mph 94 % 0.02 in 0 W/m2
01:36 35.4 °F 33.9 °F 29.08 in North 6.0 mph 11.0 mph 94 % 0.02 in 0 W/m2
01:39 35.4 °F 33.9 °F 29.08 in NNE 5.0 mph 8.0 mph 94 % 0.02 in 0 W/m2
01:43 35.4 °F 33.9 °F 29.09 in North 6.0 mph 12.0 mph 94 % 0.01 in 0 W/m2
01:46 35.4 °F 33.9 °F 29.08 in NNE 10.0 mph 18.0 mph 94 % 0.01 in 0 W/m2
01:50 35.6 °F 34.0 °F 29.09 in North 7.0 mph 11.0 mph 94 % 0.01 in 0 W/m2
01:55 35.8 °F 34.0 °F 29.09 in North 7.0 mph 12.0 mph 93 % 0.01 in 0 W/m2
01:57 35.8 °F 34.0 °F 29.08 in North 8.0 mph 18.0 mph 93 % 0.01 in 0 W/m2
02:01 35.8 °F 34.0 °F 29.09 in North 6.0 mph 11.0 mph 93 % 0.01 in 0 W/m2
02:02 35.8 °F 34.0 °F 29.09 in North 6.0 mph 14.0 mph 93 % 0.00 in 0 W/m2
02:07 35.8 °F 34.0 °F 29.09 in North 6.0 mph 13.0 mph 93 % 0.00 in 0 W/m2
02:12 36.0 °F 34.1 °F 29.09 in NNE 8.0 mph 14.0 mph 93 % 0.00 in 0 W/m2
02:14 36.0 °F 34.1 °F 29.09 in NNE 8.0 mph 14.0 mph 93 % 0.00 in 0 W/m2
02:18 36.0 °F 34.1 °F 29.09 in NNE 3.0 mph 9.0 mph 93 % 0.00 in 0 W/m2
02:23 36.0 °F 34.1 °F 29.09 in North 6.0 mph 12.0 mph 93 % 0.00 in 0 W/m2
02:26 36.0 °F 34.1 °F 29.09 in NNE 6.0 mph 11.0 mph 93 % 0.00 in 0 W/m2
02:31 36.0 °F 34.1 °F 29.09 in NNE 5.0 mph 10.0 mph 93 % 0.00 in 0 W/m2
02:33 36.1 °F 34.3 °F 29.09 in North 5.0 mph 11.0 mph 93 % 0.00 in 0 W/m2
02:37 36.1 °F 34.3 °F 29.09 in North 8.0 mph 14.0 mph 93 % 0.00 in 0 W/m2
02:42 36.1 °F 34.0 °F 29.09 in NNW 6.0 mph 10.0 mph 92 % 0.00 in 0 W/m2
02:43 36.1 °F 34.0 °F 29.09 in North 7.0 mph 15.0 mph 92 % 0.00 in 0 W/m2
02:44 36.1 °F 34.0 °F 29.09 in North 8.0 mph 15.0 mph 92 % 0.00 in 0 W/m2
02:49 36.0 °F 33.9 °F 29.09 in North 8.0 mph 13.0 mph 92 % 0.00 in 0 W/m2
02:54 36.0 °F 33.9 °F 29.09 in North 7.0 mph 18.0 mph 92 % 0.00 in 0 W/m2
02:57 36.0 °F 33.9 °F 29.09 in North 7.0 mph 11.0 mph 92 % 0.00 in 0 W/m2
02:58 36.0 °F 33.9 °F 29.09 in NNW 9.0 mph 13.0 mph 92 % 0.00 in 0 W/m2
03:03 36.0 °F 33.9 °F 29.09 in North 6.0 mph 12.0 mph 92 % 0.00 in 0 W/m2
03:07 36.0 °F 33.9 °F 29.09 in NNW 9.0 mph 19.0 mph 92 % 0.00 in 0 W/m2
03:09 36.0 °F 33.9 °F 29.09 in North 10.0 mph 20.0 mph 92 % 0.00 in 0 W/m2
03:15 36.0 °F 33.9 °F 29.09 in North 7.0 mph 12.0 mph 92 % 0.00 in 0 W/m2
03:20 36.0 °F 33.9 °F 29.08 in NNW 7.0 mph 11.0 mph 92 % 0.00 in 0 W/m2
03:22 35.8 °F 33.7 °F 29.08 in North 7.0 mph 11.0 mph 92 % 0.00 in 0 W/m2
03:27 36.0 °F 33.9 °F 29.09 in NNW 7.0 mph 12.0 mph 92 % 0.00 in 0 W/m2
03:29 36.0 °F 33.9 °F 29.09 in NNW 7.0 mph 13.0 mph 92 % 0.00 in 0 W/m2
03:34 36.0 °F 33.9 °F 29.08 in NNW 11.0 mph 18.0 mph 92 % 0.00 in 0 W/m2
03:35 36.0 °F 33.9 °F 29.08 in NNW 11.0 mph 18.0 mph 92 % 0.00 in 0 W/m2
03:40 36.0 °F 33.9 °F 29.09 in North 10.0 mph 18.0 mph 92 % 0.00 in 0 W/m2
03:43 36.0 °F 33.9 °F 29.09 in North 8.0 mph 15.0 mph 92 % 0.00 in 0 W/m2
03:44 36.1 °F 34.3 °F 29.09 in NNW 8.0 mph 15.0 mph 93 % 0.00 in 0 W/m2
03:49 36.1 °F 34.0 °F 29.09 in North 4.0 mph 11.0 mph 92 % 0.00 in 0 W/m2
03:50 36.1 °F 34.0 °F 29.09 in NNW 7.0 mph 12.0 mph 92 % 0.00 in 0 W/m2
03:55 36.0 °F 33.9 °F 29.09 in North 9.0 mph 13.0 mph 92 % 0.00 in 0 W/m2
03:56 36.0 °F 33.9 °F 29.09 in North 8.0 mph 13.0 mph 92 % 0.00 in 0 W/m2
03:58 36.0 °F 33.9 °F 29.09 in North 10.0 mph 23.0 mph 92 % 0.00 in 0 W/m2
04:02 36.0 °F 33.9 °F 29.09 in North 7.0 mph 13.0 mph 92 % 0.00 in 0 W/m2
04:07 36.0 °F 33.9 °F 29.09 in North 9.0 mph 14.0 mph 92 % 0.00 in 0 W/m2
04:09 36.0 °F 33.9 °F 29.09 in NNW 10.0 mph 16.0 mph 92 % 0.00 in 0 W/m2
04:12 36.0 °F 33.9 °F 29.09 in NNW 10.0 mph 15.0 mph 92 % 0.00 in 0 W/m2
04:16 35.8 °F 33.7 °F 29.09 in NNW 10.0 mph 14.0 mph 92 % 0.00 in 0 W/m2
04:18 35.8 °F 33.7 °F 29.09 in NNW 10.0 mph 15.0 mph 92 % 0.00 in 0 W/m2
04:22 35.8 °F 33.7 °F 29.09 in NNW 7.0 mph 13.0 mph 92 % 0.00 in 0 W/m2
04:25 35.8 °F 33.7 °F 29.09 in NNW 9.0 mph 13.0 mph 92 % 0.00 in 0 W/m2
04:29 35.8 °F 33.7 °F 29.09 in NNW 8.0 mph 13.0 mph 92 % 0.00 in 0 W/m2
04:30 35.8 °F 33.7 °F 29.09 in NNW 7.0 mph 10.0 mph 92 % 0.00 in 0 W/m2
04:35 35.8 °F 33.7 °F 29.10 in NNW 7.0 mph 11.0 mph 92 % 0.00 in 0 W/m2
04:40 36.0 °F 33.6 °F 29.10 in NNW 9.0 mph 15.0 mph 91 % 0.00 in 0 W/m2
04:41 36.0 °F 33.6 °F 29.10 in NNW 10.0 mph 15.0 mph 91 % 0.00 in 0 W/m2
04:46 36.0 °F 33.6 °F 29.10 in NNW 9.0 mph 15.0 mph 91 % 0.00 in 0 W/m2
04:47 36.0 °F 33.6 °F 29.10 in NNW 9.0 mph 15.0 mph 91 % 0.00 in 0 W/m2
04:48 36.0 °F 33.6 °F 29.10 in NNW 6.0 mph 10.0 mph 91 % 0.00 in 0 W/m2
04:53 36.0 °F 33.6 °F 29.10 in NNW 8.0 mph 15.0 mph 91 % 0.00 in 0 W/m2
04:54 36.0 °F 33.6 °F 29.10 in NNW 6.0 mph 10.0 mph 91 % 0.00 in 0 W/m2
04:59 36.1 °F 33.5 °F 29.10 in NNW 10.0 mph 15.0 mph 90 % 0.00 in 0 W/m2
05:00 36.1 °F 33.5 °F 29.11 in NNW 10.0 mph 15.0 mph 90 % 0.00 in 0 W/m2
05:01 36.1 °F 33.5 °F 29.11 in NNW 10.0 mph 15.0 mph 90 % 0.00 in 0 W/m2
05:06 36.1 °F 33.5 °F 29.11 in NNW 10.0 mph 19.0 mph 90 % 0.00 in 0 W/m2
05:11 36.1 °F 33.5 °F 29.11 in NNW 9.0 mph 13.0 mph 90 % 0.00 in 0 W/m2
05:16 36.3 °F 33.7 °F 29.11 in NNW 9.0 mph 15.0 mph 90 % 0.00 in 0 W/m2
05:18 36.3 °F 33.7 °F 29.11 in NNW 11.0 mph 15.0 mph 90 % 0.00 in 0 W/m2
05:20 36.3 °F 33.7 °F 29.11 in NNW 9.0 mph 18.0 mph 90 % 0.00 in 0 W/m2
05:23 36.3 °F 33.4 °F 29.12 in NNW 10.0 mph 18.0 mph 89 % 0.00 in 0 W/m2
05:28 36.3 °F 33.4 °F 29.12 in NNW 10.0 mph 22.0 mph 89 % 0.00 in 0 W/m2
05:31 36.3 °F 33.4 °F 29.12 in NNW 10.0 mph 19.0 mph 89 % 0.00 in 0 W/m2
05:34 36.3 °F 33.4 °F 29.12 in NNW 10.0 mph 18.0 mph 89 % 0.00 in 0 W/m2
05:36 36.3 °F 33.4 °F 29.12 in NNW 11.0 mph 19.0 mph 89 % 0.00 in 0 W/m2
05:41 36.3 °F 33.4 °F 29.12 in NNW 8.0 mph 15.0 mph 89 % 0.00 in 0 W/m2
05:42 36.3 °F 33.4 °F 29.12 in NNW 8.0 mph 15.0 mph 89 % 0.00 in 0 W/m2
05:47 36.3 °F 33.4 °F 29.12 in NNW 10.0 mph 15.0 mph 89 % 0.00 in 0 W/m2
05:52 36.3 °F 33.4 °F 29.12 in NNW 8.0 mph 14.0 mph 89 % 0.00 in 0 W/m2
05:53 36.3 °F 33.4 °F 29.12 in NNW 9.0 mph 16.0 mph 89 % 0.00 in 0 W/m2
05:58 36.3 °F 33.7 °F 29.12 in NNW 10.0 mph 16.0 mph 90 % 0.00 in 0 W/m2
05:59 36.3 °F 33.7 °F 29.12 in NNW 11.0 mph 16.0 mph 90 % 0.00 in 0 W/m2
06:04 36.5 °F 33.8 °F 29.13 in NNW 8.0 mph 14.0 mph 90 % 0.00 in 0 W/m2
06:05 36.5 °F 33.8 °F 29.13 in NNW 9.0 mph 13.0 mph 90 % 0.00 in 0 W/m2
06:10 36.7 °F 34.0 °F 29.13 in NNW 11.0 mph 16.0 mph 90 % 0.00 in 0 W/m2
06:15 36.7 °F 34.0 °F 29.13 in NNW 8.0 mph 15.0 mph 90 % 0.00 in 0 W/m2
06:20 36.7 °F 34.0 °F 29.13 in North 10.0 mph 19.0 mph 90 % 0.00 in 0 W/m2
06:26 36.7 °F 34.0 °F 29.13 in NNW 7.0 mph 12.0 mph 90 % 0.00 in 0 W/m2
06:31 36.7 °F 34.0 °F 29.14 in NNW 10.0 mph 19.0 mph 90 % 0.00 in 0 W/m2
06:36 36.7 °F 34.0 °F 29.14 in NNW 10.0 mph 20.0 mph 90 % 0.00 in 0 W/m2
06:37 36.7 °F 34.0 °F 29.14 in NNW 10.0 mph 20.0 mph 90 % 0.00 in 0 W/m2
06:38 36.7 °F 34.0 °F 29.14 in NNW 8.0 mph 18.0 mph 90 % 0.00 in 0 W/m2
06:43 36.7 °F 34.0 °F 29.14 in NNW 7.0 mph 10.0 mph 90 % 0.00 in 0 W/m2
06:45 36.7 °F 34.0 °F 29.14 in NNW 8.0 mph 14.0 mph 90 % 0.00 in 0 W/m2
06:50 36.7 °F 34.0 °F 29.14 in NNW 9.0 mph 13.0 mph 90 % 0.00 in 0 W/m2
06:52 36.7 °F 34.0 °F 29.15 in NNW 9.0 mph 20.0 mph 90 % 0.00 in 0 W/m2
06:57 36.7 °F 34.3 °F 29.15 in NNW 9.0 mph 15.0 mph 91 % 0.00 in 0 W/m2
07:02 36.7 °F 34.3 °F 29.15 in NNW 6.0 mph 14.0 mph 91 % 0.00 in 0 W/m2
07:03 36.7 °F 34.3 °F 29.15 in NNW 5.0 mph 9.0 mph 91 % 0.00 in 0 W/m2
07:08 36.7 °F 34.3 °F 29.15 in NNW 8.0 mph 14.0 mph 91 % 0.00 in 0 W/m2
07:10 36.7 °F 34.3 °F 29.15 in NW 8.0 mph 14.0 mph 91 % 0.00 in 0 W/m2
07:15 36.7 °F 34.3 °F 29.16 in NNW 7.0 mph 14.0 mph 91 % 0.00 in 0 W/m2
07:17 36.7 °F 34.3 °F 29.16 in NNW 7.0 mph 13.0 mph 91 % 0.00 in 0 W/m2
07:22 36.7 °F 34.0 °F 29.16 in NNW 11.0 mph 19.0 mph 90 % 0.00 in 0 W/m2
07:24 36.7 °F 34.0 °F 29.16 in NNW 8.0 mph 14.0 mph 90 % 0.00 in 0 W/m2
07:28 36.7 °F 34.0 °F 29.16 in NNW 9.0 mph 13.0 mph 90 % 0.00 in 0 W/m2
07:30 36.7 °F 34.0 °F 29.16 in NW 9.0 mph 16.0 mph 90 % 0.00 in 0 W/m2
07:35 36.7 °F 34.0 °F 29.16 in NNW 9.0 mph 20.0 mph 90 % 0.00 in 0 W/m2
07:37 36.7 °F 34.0 °F 29.17 in NNW 9.0 mph 13.0 mph 90 % 0.00 in 0 W/m2
07:42 36.7 °F 34.0 °F 29.17 in NNW 8.0 mph 13.0 mph 90 % 0.00 in 0 W/m2
07:43 36.7 °F 34.0 °F 29.17 in NW 8.0 mph 13.0 mph 90 % 0.00 in 0 W/m2
07:45 36.7 °F 34.0 °F 29.17 in NNW 9.0 mph 16.0 mph 90 % 0.00 in 0 W/m2
07:50 36.9 °F 34.2 °F 29.17 in NNW 10.0 mph 16.0 mph 90 % 0.00 in 0 W/m2
07:52 36.9 °F 34.2 °F 29.17 in NNW 10.0 mph 16.0 mph 90 % 0.00 in 0 W/m2
07:53 36.9 °F 34.2 °F 29.17 in NW 9.0 mph 15.0 mph 90 % 0.00 in 0 W/m2
07:59 36.9 °F 34.2 °F 29.17 in NNW 10.0 mph 18.0 mph 90 % 0.00 in 0 W/m2
08:00 36.9 °F 34.2 °F 29.17 in NW 11.0 mph 19.0 mph 90 % 0.00 in 0 W/m2
08:05 36.9 °F 34.2 °F 29.18 in NNW 8.0 mph 15.0 mph 90 % 0.00 in 0 W/m2
08:07 36.9 °F 34.2 °F 29.18 in NNW 7.0 mph 15.0 mph 90 % 0.00 in 0 W/m2
08:12 36.9 °F 34.2 °F 29.18 in NW 9.0 mph 15.0 mph 90 % 0.00 in 0 W/m2
08:13 36.9 °F 34.5 °F 29.18 in NW 11.0 mph 20.0 mph 91 % 0.00 in 0 W/m2
08:18 36.9 °F 34.2 °F 29.18 in NNW 14.0 mph 21.0 mph 90 % 0.00 in 0 W/m2
08:20 36.9 °F 34.5 °F 29.19 in NNW 10.0 mph 16.0 mph 91 % 0.00 in 0 W/m2
08:25 36.9 °F 34.5 °F 29.19 in NNW 11.0 mph 18.0 mph 91 % 0.00 in 0 W/m2
08:26 36.9 °F 34.5 °F 29.19 in NNW 10.0 mph 18.0 mph 91 % 0.00 in 0 W/m2
08:31 36.9 °F 34.5 °F 29.20 in NNW 10.0 mph 16.0 mph 91 % 0.00 in 0 W/m2
08:36 36.9 °F 34.5 °F 29.20 in NNW 10.0 mph 16.0 mph 91 % 0.00 in 0 W/m2
08:37 36.9 °F 34.5 °F 29.20 in NNW 10.0 mph 16.0 mph 91 % 0.00 in 0 W/m2
08:38 36.9 °F 34.5 °F 29.20 in NNW 11.0 mph 22.0 mph 91 % 0.01 in 0 W/m2
08:43 36.7 °F 34.3 °F 29.20 in NNW 7.0 mph 14.0 mph 91 % 0.01 in 0 W/m2
08:44 36.7 °F 34.3 °F 29.21 in NNW 7.0 mph 15.0 mph 91 % 0.01 in 5 W/m2
08:49 36.3 °F 33.9 °F 29.21 in NNW 15.0 mph 23.0 mph 91 % 0.01 in 7 W/m2
08:50 36.3 °F 33.9 °F 29.21 in NNW 12.0 mph 22.0 mph 91 % 0.01 in 7 W/m2
08:55 36.1 °F 33.8 °F 29.21 in NNW 13.0 mph 21.0 mph 91 % 0.01 in 7 W/m2
08:57 36.1 °F 33.8 °F 29.21 in NNW 13.0 mph 23.0 mph 91 % 0.01 in 9 W/m2
08:59 36.1 °F 34.0 °F 29.21 in NW 13.0 mph 23.0 mph 92 % 0.01 in 9 W/m2
09:04 36.0 °F 33.9 °F 29.22 in NNW 7.0 mph 19.0 mph 92 % 0.01 in 11 W/m2
09:09 36.1 °F 34.0 °F 29.22 in NNW 8.0 mph 14.0 mph 92 % 0.01 in 9 W/m2
09:10 36.0 °F 33.9 °F 29.22 in NW 8.0 mph 14.0 mph 92 % 0.01 in 9 W/m2
09:15 36.1 °F 34.0 °F 29.23 in NW 9.0 mph 21.0 mph 92 % 0.01 in 7 W/m2
09:18 36.0 °F 33.9 °F 29.23 in NW 9.0 mph 15.0 mph 92 % 0.01 in 9 W/m2
09:20 36.0 °F 33.9 °F 29.24 in NNW 6.0 mph 11.0 mph 92 % 0.01 in 9 W/m2
09:25 35.8 °F 33.7 °F 29.24 in NNW 11.0 mph 20.0 mph 92 % 0.02 in 0 W/m2
09:30 35.4 °F 33.3 °F 29.24 in NNW 7.0 mph 14.0 mph 92 % 0.02 in 7 W/m2
09:31 35.4 °F 33.3 °F 29.24 in NNW 7.0 mph 14.0 mph 92 % 0.02 in 7 W/m2
09:32 35.4 °F 33.3 °F 29.24 in NNW 8.0 mph 12.0 mph 92 % 0.02 in 7 W/m2
09:36 35.4 °F 33.6 °F 29.24 in NW 6.0 mph 10.0 mph 93 % 0.02 in 9 W/m2
09:41 35.4 °F 33.6 °F 29.24 in NNW 5.0 mph 8.0 mph 93 % 0.02 in 12 W/m2
09:43 35.4 °F 33.6 °F 29.25 in NNW 4.0 mph 8.0 mph 93 % 0.02 in 14 W/m2
09:48 35.4 °F 33.6 °F 29.25 in NW 6.0 mph 10.0 mph 93 % 0.02 in 18 W/m2
09:52 35.6 °F 33.8 °F 29.25 in NW 6.0 mph 14.0 mph 93 % 0.02 in 21 W/m2
09:54 35.6 °F 33.8 °F 29.25 in NW 8.0 mph 14.0 mph 93 % 0.02 in 25 W/m2
09:59 35.8 °F 34.0 °F 29.25 in NW 7.0 mph 12.0 mph 93 % 0.02 in 30 W/m2
10:01 35.8 °F 34.0 °F 29.25 in NW 7.0 mph 11.0 mph 93 % 0.02 in 33 W/m2
10:06 36.0 °F 34.1 °F 29.26 in NW 8.0 mph 14.0 mph 93 % 0.02 in 37 W/m2
10:08 36.0 °F 34.1 °F 29.26 in NW 10.0 mph 21.0 mph 93 % 0.02 in 39 W/m2
10:12 36.1 °F 34.0 °F 29.26 in NW 6.0 mph 12.0 mph 92 % 0.02 in 42 W/m2
10:17 36.1 °F 34.0 °F 29.26 in NW 9.0 mph 15.0 mph 92 % 0.02 in 49 W/m2
10:19 36.1 °F 33.8 °F 29.26 in NNW 8.0 mph 15.0 mph 91 % 0.02 in 51 W/m2
10:21 36.1 °F 33.8 °F 29.27 in NW 9.0 mph 18.0 mph 91 % 0.02 in 56 W/m2
10:26 36.3 °F 33.7 °F 29.27 in NW 9.0 mph 20.0 mph 90 % 0.01 in 62 W/m2
10:28 36.5 °F 33.8 °F 29.27 in NW 9.0 mph 20.0 mph 90 % 0.01 in 63 W/m2
10:31 36.7 °F 34.0 °F 29.27 in NW 12.0 mph 22.0 mph 90 % 0.01 in 69 W/m2
10:36 36.7 °F 33.5 °F 29.27 in NW 11.0 mph 20.0 mph 88 % 0.00 in 70 W/m2
10:37 36.7 °F 33.5 °F 29.27 in NW 11.0 mph 20.0 mph 88 % 0.00 in 72 W/m2
10:39 36.7 °F 33.5 °F 29.27 in NW 12.0 mph 23.0 mph 88 % 0.00 in 72 W/m2
10:43 36.7 °F 33.5 °F 29.27 in NW 9.0 mph 18.0 mph 88 % 0.00 in 72 W/m2
10:49 36.9 °F 33.4 °F 29.27 in NW 8.0 mph 14.0 mph 87 % 0.00 in 77 W/m2
10:54 36.9 °F 33.4 °F 29.27 in NW 9.0 mph 14.0 mph 87 % 0.00 in 83 W/m2
10:55 36.9 °F 33.4 °F 29.28 in NW 9.0 mph 14.0 mph 87 % 0.00 in 83 W/m2
11:00 36.9 °F 33.1 °F 29.28 in NW 8.0 mph 16.0 mph 86 % 0.00 in 83 W/m2
11:01 36.9 °F 33.1 °F 29.28 in NW 8.0 mph 16.0 mph 86 % 0.00 in 83 W/m2
11:06 36.9 °F 33.1 °F 29.28 in NW 11.0 mph 15.0 mph 86 % 0.00 in 90 W/m2
11:08 36.9 °F 32.8 °F 29.28 in NW 10.0 mph 15.0 mph 85 % 0.00 in 93 W/m2
11:12 36.9 °F 32.5 °F 29.28 in NW 14.0 mph 22.0 mph 84 % 0.00 in 102 W/m2
11:13 36.9 °F 32.5 °F 29.28 in NW 13.0 mph 22.0 mph 84 % 0.00 in 104 W/m2
11:18 37.0 °F 32.7 °F 29.28 in NW 11.0 mph 19.0 mph 84 % 0.00 in 105 W/m2
11:20 37.0 °F 32.7 °F 29.28 in NW 10.0 mph 16.0 mph 84 % 0.00 in 104 W/m2
11:24 37.0 °F 32.4 °F 29.28 in NW 8.0 mph 13.0 mph 83 % 0.00 in 105 W/m2
11:29 37.2 °F 32.5 °F 29.28 in NW 8.0 mph 12.0 mph 83 % 0.00 in 109 W/m2
11:30 37.2 °F 32.5 °F 29.28 in NW 7.0 mph 11.0 mph 83 % 0.00 in 111 W/m2
11:35 37.2 °F 32.5 °F 29.29 in NW 10.0 mph 16.0 mph 83 % 0.00 in 118 W/m2
11:40 37.2 °F 32.2 °F 29.29 in NW 9.0 mph 15.0 mph 82 % 0.00 in 107 W/m2
11:41 37.2 °F 32.2 °F 29.29 in NW 9.0 mph 15.0 mph 82 % 0.00 in 111 W/m2
11:46 37.2 °F 31.9 °F 29.29 in NW 11.0 mph 20.0 mph 81 % 0.00 in 137 W/m2
11:48 37.2 °F 31.9 °F 29.29 in NW 9.0 mph 15.0 mph 81 % 0.00 in 142 W/m2
11:51 37.4 °F 32.1 °F 29.29 in NW 12.0 mph 21.0 mph 81 % 0.00 in 144 W/m2
11:54 37.4 °F 32.1 °F 29.29 in NW 10.0 mph 18.0 mph 81 % 0.00 in 137 W/m2
11:59 37.6 °F 32.0 °F 29.29 in NW 8.0 mph 14.0 mph 80 % 0.00 in 125 W/m2
12:01 37.6 °F 32.0 °F 29.29 in NW 8.0 mph 13.0 mph 80 % 0.00 in 121 W/m2
12:09 37.4 °F 31.5 °F 29.29 in NW 11.0 mph 19.0 mph 79 % 0.00 in 123 W/m2
12:14 37.4 °F 31.5 °F 29.30 in NW 9.0 mph 16.0 mph 79 % 0.00 in 114 W/m2
12:18 37.2 °F 31.3 °F 29.30 in NW 10.0 mph 18.0 mph 79 % 0.00 in 113 W/m2
12:23 37.2 °F 31.0 °F 29.30 in NW 9.0 mph 15.0 mph 78 % 0.00 in 109 W/m2
12:28 37.2 °F 31.0 °F 29.30 in NW 12.0 mph 19.0 mph 78 % 0.00 in 107 W/m2
12:31 37.0 °F 30.8 °F 29.30 in NW 10.0 mph 14.0 mph 78 % 0.00 in 107 W/m2
12:32 37.0 °F 30.5 °F 29.30 in NW 10.0 mph 16.0 mph 77 % 0.00 in 107 W/m2
12:37 37.0 °F 30.5 °F 29.31 in WNW 10.0 mph 16.0 mph 77 % 0.00 in 109 W/m2
12:41 37.0 °F 30.5 °F 29.31 in NW 9.0 mph 16.0 mph 77 % 0.00 in 105 W/m2
12:46 37.0 °F 30.8 °F 29.31 in NW 7.0 mph 12.0 mph 78 % 0.00 in 98 W/m2
12:51 37.0 °F 30.5 °F 29.31 in NW 8.0 mph 13.0 mph 77 % 0.00 in 93 W/m2
12:53 37.0 °F 30.5 °F 29.31 in NW 7.0 mph 11.0 mph 77 % 0.00 in 91 W/m2
12:54 37.0 °F 30.5 °F 29.31 in NW 9.0 mph 13.0 mph 77 % 0.00 in 91 W/m2
12:59 37.0 °F 30.5 °F 29.32 in NW 10.0 mph 15.0 mph 77 % 0.00 in 90 W/m2
13:01 37.0 °F 30.2 °F 29.32 in NW 10.0 mph 15.0 mph 76 % 0.00 in 90 W/m2
13:06 37.0 °F 30.2 °F 29.32 in NW 8.0 mph 18.0 mph 76 % 0.00 in 93 W/m2
13:07 37.0 °F 30.5 °F 29.32 in NW 9.0 mph 18.0 mph 77 % 0.00 in 93 W/m2
13:12 36.9 °F 30.0 °F 29.32 in NW 9.0 mph 16.0 mph 76 % 0.00 in 95 W/m2
13:17 36.9 °F 30.0 °F 29.32 in NW 11.0 mph 20.0 mph 76 % 0.00 in 97 W/m2
13:18 36.9 °F 30.0 °F 29.32 in NW 9.0 mph 14.0 mph 76 % 0.00 in 97 W/m2
13:23 36.9 °F 30.3 °F 29.32 in NW 8.0 mph 19.0 mph 77 % 0.00 in 97 W/m2
13:28 36.9 °F 30.3 °F 29.32 in WNW 13.0 mph 21.0 mph 77 % 0.00 in 98 W/m2
13:33 36.7 °F 29.8 °F 29.32 in WNW 10.0 mph 14.0 mph 76 % 0.00 in 104 W/m2
13:35 36.7 °F 29.8 °F 29.32 in NW 11.0 mph 18.0 mph 76 % 0.00 in 104 W/m2
13:36 36.7 °F 29.8 °F 29.32 in NW 11.0 mph 18.0 mph 76 % 0.00 in 105 W/m2
13:41 36.7 °F 29.8 °F 29.33 in WNW 11.0 mph 21.0 mph 76 % 0.00 in 104 W/m2
13:46 36.7 °F 30.1 °F 29.33 in NW 10.0 mph 16.0 mph 77 % 0.00 in 107 W/m2
13:47 36.7 °F 30.1 °F 29.32 in NW 10.0 mph 16.0 mph 77 % 0.00 in 107 W/m2
13:51 36.7 °F 29.8 °F 29.33 in NW 11.0 mph 20.0 mph 76 % 0.00 in 105 W/m2
13:53 36.7 °F 29.8 °F 29.33 in NW 10.0 mph 18.0 mph 76 % 0.00 in 102 W/m2
13:58 36.7 °F 29.8 °F 29.33 in NW 9.0 mph 16.0 mph 76 % 0.00 in 97 W/m2
14:00 36.7 °F 29.8 °F 29.33 in NW 9.0 mph 13.0 mph 76 % 0.00 in 98 W/m2
14:04 36.7 °F 29.8 °F 29.33 in NW 10.0 mph 15.0 mph 76 % 0.00 in 102 W/m2
14:06 36.7 °F 29.8 °F 29.33 in NW 12.0 mph 18.0 mph 76 % 0.00 in 116 W/m2
14:11 36.7 °F 29.8 °F 29.33 in WNW 11.0 mph 23.0 mph 76 % 0.00 in 123 W/m2
14:14 36.9 °F 30.0 °F 29.33 in NW 12.0 mph 21.0 mph 76 % 0.00 in 102 W/m2
14:19 36.9 °F 30.0 °F 29.33 in WNW 9.0 mph 14.0 mph 76 % 0.00 in 113 W/m2
14:22 36.9 °F 30.0 °F 29.33 in NW 10.0 mph 15.0 mph 76 % 0.00 in 146 W/m2
14:26 37.0 °F 30.2 °F 29.33 in WNW 11.0 mph 22.0 mph 76 % 0.00 in 105 W/m2
14:28 37.0 °F 30.2 °F 29.34 in WNW 9.0 mph 15.0 mph 76 % 0.00 in 135 W/m2
14:30 37.2 °F 30.0 °F 29.34 in NW 10.0 mph 18.0 mph 75 % 0.00 in 167 W/m2
14:33 37.4 °F 29.9 °F 29.34 in NW 12.0 mph 23.0 mph 74 % 0.00 in 149 W/m2
14:38 37.6 °F 30.0 °F 29.34 in NW 13.0 mph 20.0 mph 74 % 0.00 in 142 W/m2
14:39 37.6 °F 29.7 °F 29.34 in NW 13.0 mph 20.0 mph 73 % 0.00 in 139 W/m2
14:44 37.6 °F 29.7 °F 29.34 in NW 12.0 mph 18.0 mph 73 % 0.00 in 120 W/m2
14:47 37.6 °F 29.7 °F 29.34 in NW 12.0 mph 21.0 mph 73 % 0.00 in 111 W/m2
14:51 37.4 °F 29.5 °F 29.34 in NW 13.0 mph 20.0 mph 73 % 0.00 in 98 W/m2
14:55 37.2 °F 29.4 °F 29.34 in NW 11.0 mph 19.0 mph 73 % 0.00 in 86 W/m2
15:00 37.0 °F 29.2 °F 29.34 in NW 12.0 mph 19.0 mph 73 % 0.00 in 63 W/m2
15:05 37.0 °F 29.2 °F 29.35 in NW 11.0 mph 18.0 mph 73 % 0.00 in 33 W/m2
15:06 37.0 °F 29.2 °F 29.35 in NW 11.0 mph 18.0 mph 73 % 0.00 in 33 W/m2
15:11 36.9 °F 29.3 °F 29.35 in WNW 7.0 mph 13.0 mph 74 % 0.00 in 28 W/m2
15:13 36.9 °F 29.3 °F 29.35 in WNW 7.0 mph 15.0 mph 74 % 0.00 in 25 W/m2
15:18 36.7 °F 29.2 °F 29.35 in WNW 10.0 mph 15.0 mph 74 % 0.00 in 21 W/m2
15:20 36.7 °F 29.2 °F 29.35 in WNW 10.0 mph 18.0 mph 74 % 0.00 in 21 W/m2
15:22 36.7 °F 29.2 °F 29.35 in WNW 9.0 mph 15.0 mph 74 % 0.00 in 19 W/m2
15:26 36.5 °F 29.3 °F 29.35 in WNW 10.0 mph 13.0 mph 75 % 0.00 in 18 W/m2
15:28 36.5 °F 29.0 °F 29.35 in WNW 10.0 mph 15.0 mph 74 % 0.00 in 18 W/m2
15:32 36.3 °F 29.2 °F 29.35 in WNW 9.0 mph 16.0 mph 75 % 0.00 in 16 W/m2
15:37 36.1 °F 29.0 °F 29.35 in WNW 9.0 mph 18.0 mph 75 % 0.00 in 12 W/m2
15:42 36.0 °F 28.8 °F 29.36 in WNW 10.0 mph 14.0 mph 75 % 0.00 in 11 W/m2
15:43 36.0 °F 28.8 °F 29.36 in WNW 9.0 mph 14.0 mph 75 % 0.00 in 9 W/m2
15:47 35.8 °F 29.0 °F 29.36 in WNW 8.0 mph 13.0 mph 76 % 0.00 in 7 W/m2
15:49 35.8 °F 29.0 °F 29.36 in WNW 7.0 mph 10.0 mph 76 % 0.00 in 7 W/m2
15:54 35.8 °F 29.0 °F 29.36 in WNW 7.0 mph 11.0 mph 76 % 0.00 in 5 W/m2
15:59 35.4 °F 28.9 °F 29.36 in WNW 7.0 mph 11.0 mph 77 % 0.00 in 0 W/m2
16:00 35.2 °F 28.8 °F 29.36 in WNW 8.0 mph 11.0 mph 77 % 0.00 in 0 W/m2
16:05 35.2 °F 29.1 °F 29.36 in WNW 9.0 mph 13.0 mph 78 % 0.00 in 0 W/m2
16:09 35.1 °F 28.9 °F 29.36 in WNW 7.0 mph 11.0 mph 78 % 0.00 in 0 W/m2
16:14 34.9 °F 28.7 °F 29.36 in WNW 8.0 mph 13.0 mph 78 % 0.00 in 0 W/m2
16:17 34.9 °F 29.0 °F 29.36 in WNW 7.0 mph 11.0 mph 79 % 0.00 in 0 W/m2
16:22 34.5 °F 28.7 °F 29.37 in WNW 8.0 mph 14.0 mph 79 % 0.00 in 0 W/m2
16:24 34.5 °F 28.7 °F 29.37 in WNW 9.0 mph 16.0 mph 79 % 0.00 in 0 W/m2
16:27 34.5 °F 28.7 °F 29.37 in NW 8.0 mph 12.0 mph 79 % 0.00 in 0 W/m2
16:32 34.5 °F 28.7 °F 29.37 in WNW 9.0 mph 15.0 mph 79 % 0.00 in 0 W/m2
16:34 34.5 °F 28.7 °F 29.37 in WNW 9.0 mph 13.0 mph 79 % 0.00 in 0 W/m2
16:39 34.3 °F 28.5 °F 29.38 in WNW 9.0 mph 14.0 mph 79 % 0.00 in 0 W/m2
16:44 34.3 °F 28.5 °F 29.37 in WNW 9.0 mph 15.0 mph 79 % 0.00 in 0 W/m2
16:49 34.3 °F 28.8 °F 29.37 in WNW 8.0 mph 13.0 mph 80 % 0.00 in 0 W/m2
16:53 34.2 °F 28.6 °F 29.38 in WNW 9.0 mph 14.0 mph 80 % 0.00 in 0 W/m2
16:54 34.2 °F 28.6 °F 29.38 in WNW 8.0 mph 12.0 mph 80 % 0.00 in 0 W/m2
16:58 34.2 °F 28.6 °F 29.38 in WNW 9.0 mph 15.0 mph 80 % 0.00 in 0 W/m2
17:03 34.2 °F 28.6 °F 29.38 in WNW 8.0 mph 18.0 mph 80 % 0.00 in 0 W/m2
17:05 34.2 °F 28.6 °F 29.38 in WNW 8.0 mph 18.0 mph 80 % 0.00 in 0 W/m2
17:10 34.2 °F 28.6 °F 29.38 in WNW 9.0 mph 14.0 mph 80 % 0.00 in 0 W/m2
17:14 34.2 °F 28.6 °F 29.39 in WNW 9.0 mph 13.0 mph 80 % 0.00 in 0 W/m2
17:19 34.0 °F 28.5 °F 29.39 in NW 5.0 mph 10.0 mph 80 % 0.00 in 0 W/m2
17:21 34.0 °F 28.5 °F 29.39 in WNW 7.0 mph 12.0 mph 80 % 0.00 in 0 W/m2
17:26 34.0 °F 28.5 °F 29.39 in WNW 7.0 mph 12.0 mph 80 % 0.00 in 0 W/m2
17:28 34.0 °F 28.5 °F 29.39 in WNW 7.0 mph 12.0 mph 80 % 0.00 in 0 W/m2
17:33 33.8 °F 28.3 °F 29.39 in WNW 9.0 mph 14.0 mph 80 % 0.00 in 0 W/m2
17:38 33.8 °F 28.3 °F 29.39 in WNW 8.0 mph 13.0 mph 80 % 0.00 in 0 W/m2
17:39 33.8 °F 28.3 °F 29.39 in WNW 9.0 mph 13.0 mph 80 % 0.00 in 0 W/m2
17:43 33.8 °F 28.3 °F 29.39 in WNW 9.0 mph 13.0 mph 80 % 0.00 in 0 W/m2
17:48 33.6 °F 28.4 °F 29.40 in WNW 6.0 mph 9.0 mph 81 % 0.00 in 0 W/m2
17:49 33.6 °F 28.4 °F 29.40 in WNW 7.0 mph 10.0 mph 81 % 0.00 in 0 W/m2
17:54 33.6 °F 28.4 °F 29.40 in WNW 7.0 mph 11.0 mph 81 % 0.00 in 0 W/m2
17:59 33.4 °F 28.2 °F 29.40 in WNW 7.0 mph 12.0 mph 81 % 0.00 in 0 W/m2
18:00 33.4 °F 28.2 °F 29.40 in WNW 8.0 mph 12.0 mph 81 % 0.00 in 0 W/m2
18:05 33.4 °F 28.2 °F 29.40 in WNW 8.0 mph 11.0 mph 81 % 0.00 in 0 W/m2
18:07 33.4 °F 28.2 °F 29.40 in WNW 9.0 mph 13.0 mph 81 % 0.00 in 0 W/m2
18:12 33.4 °F 28.2 °F 29.40 in WNW 10.0 mph 14.0 mph 81 % 0.00 in 0 W/m2
18:13 33.4 °F 28.2 °F 29.40 in WNW 10.0 mph 14.0 mph 81 % 0.00 in 0 W/m2
18:16 33.4 °F 28.2 °F 29.40 in WNW 9.0 mph 14.0 mph 81 % 0.00 in 0 W/m2
18:20 33.4 °F 28.2 °F 29.40 in WNW 10.0 mph 18.0 mph 81 % 0.00 in 0 W/m2
18:25 33.6 °F 28.4 °F 29.40 in WNW 10.0 mph 18.0 mph 81 % 0.00 in 0 W/m2
18:26 33.6 °F 28.4 °F 29.40 in WNW 11.0 mph 16.0 mph 81 % 0.00 in 0 W/m2
18:30 33.6 °F 28.1 °F 29.41 in NW 8.0 mph 14.0 mph 80 % 0.00 in 0 W/m2
18:35 33.6 °F 28.1 °F 29.41 in WNW 7.0 mph 12.0 mph 80 % 0.00 in 0 W/m2
18:36 33.6 °F 28.1 °F 29.41 in WNW 8.0 mph 12.0 mph 80 % 0.00 in 0 W/m2
18:44 33.6 °F 28.1 °F 29.41 in WNW 8.0 mph 12.0 mph 80 % 0.00 in 0 W/m2
18:49 33.6 °F 28.1 °F 29.42 in WNW 9.0 mph 14.0 mph 80 % 0.00 in 0 W/m2
18:50 33.6 °F 28.1 °F 29.42 in WNW 9.0 mph 14.0 mph 80 % 0.00 in 0 W/m2
18:55 33.4 °F 27.9 °F 29.42 in WNW 8.0 mph 13.0 mph 80 % 0.00 in 0 W/m2
19:00 33.4 °F 28.2 °F 29.42 in WNW 7.0 mph 13.0 mph 81 % 0.00 in 0 W/m2
19:01 33.4 °F 28.2 °F 29.42 in WNW 8.0 mph 14.0 mph 81 % 0.00 in 0 W/m2
19:06 33.4 °F 28.2 °F 29.42 in WNW 10.0 mph 12.0 mph 81 % 0.00 in 0 W/m2
19:08 33.4 °F 28.2 °F 29.42 in WNW 8.0 mph 12.0 mph 81 % 0.00 in 0 W/m2
19:13 33.3 °F 28.1 °F 29.42 in WNW 8.0 mph 13.0 mph 81 % 0.00 in 0 W/m2
19:16 33.3 °F 28.1 °F 29.42 in WNW 7.0 mph 12.0 mph 81 % 0.00 in 0 W/m2
19:18 33.1 °F 27.9 °F 29.42 in WNW 8.0 mph 16.0 mph 81 % 0.00 in 0 W/m2
19:23 33.1 °F 27.9 °F 29.42 in WNW 9.0 mph 14.0 mph 81 % 0.00 in 0 W/m2
19:28 33.1 °F 27.9 °F 29.42 in WNW 9.0 mph 13.0 mph 81 % 0.00 in 0 W/m2
19:33 33.1 °F 27.9 °F 29.42 in WNW 9.0 mph 15.0 mph 81 % 0.00 in 0 W/m2
19:37 33.3 °F 28.1 °F 29.43 in WNW 8.0 mph 14.0 mph 81 % 0.00 in 0 W/m2
19:41 33.3 °F 28.1 °F 29.43 in WNW 7.0 mph 11.0 mph 81 % 0.00 in 0 W/m2
19:43 33.3 °F 28.1 °F 29.43 in WNW 8.0 mph 11.0 mph 81 % 0.00 in 0 W/m2
19:47 33.1 °F 27.9 °F 29.43 in WNW 7.0 mph 12.0 mph 81 % 0.00 in 0 W/m2
19:48 33.1 °F 27.9 °F 29.43 in WNW 6.0 mph 12.0 mph 81 % 0.00 in 0 W/m2
19:53 33.1 °F 27.9 °F 29.43 in WNW 5.0 mph 9.0 mph 81 % 0.00 in 0 W/m2
19:54 33.1 °F 27.9 °F 29.43 in WNW 6.0 mph 9.0 mph 81 % 0.00 in 0 W/m2
19:59 32.9 °F 27.7 °F 29.42 in WNW 6.0 mph 10.0 mph 81 % 0.00 in 0 W/m2
20:00 32.9 °F 27.7 °F 29.42 in WNW 6.0 mph 10.0 mph 81 % 0.00 in 0 W/m2
20:01 32.9 °F 27.7 °F 29.42 in WNW 7.0 mph 11.0 mph 81 % 0.00 in 0 W/m2
20:06 32.9 °F 27.7 °F 29.43 in WNW 6.0 mph 9.0 mph 81 % 0.00 in 0 W/m2
20:11 33.1 °F 27.9 °F 29.43 in WNW 8.0 mph 13.0 mph 81 % 0.00 in 0 W/m2
20:13 33.1 °F 27.9 °F 29.43 in WNW 7.0 mph 10.0 mph 81 % 0.00 in 0 W/m2
20:18 33.1 °F 27.9 °F 29.43 in WNW 6.0 mph 11.0 mph 81 % 0.00 in 0 W/m2
20:23 32.9 °F 27.7 °F 29.43 in WNW 5.0 mph 8.0 mph 81 % 0.00 in 0 W/m2
20:24 32.9 °F 27.7 °F 29.43 in WNW 5.0 mph 8.0 mph 81 % 0.00 in 0 W/m2
20:26 32.9 °F 27.7 °F 29.43 in WNW 5.0 mph 9.0 mph 81 % 0.00 in 0 W/m2
20:31 32.7 °F 27.5 °F 29.43 in WNW 6.0 mph 8.0 mph 81 % 0.00 in 0 W/m2
20:32 32.7 °F 27.5 °F 29.43 in WNW 5.0 mph 9.0 mph 81 % 0.00 in 0 W/m2
20:37 32.7 °F 27.5 °F 29.43 in WNW 7.0 mph 9.0 mph 81 % 0.00 in 0 W/m2
20:39 32.7 °F 27.5 °F 29.43 in WNW 7.0 mph 11.0 mph 81 % 0.00 in 0 W/m2
20:40 32.7 °F 27.5 °F 29.44 in WNW 6.0 mph 11.0 mph 81 % 0.00 in 0 W/m2
20:45 32.7 °F 27.5 °F 29.44 in WNW 7.0 mph 11.0 mph 81 % 0.00 in 0 W/m2
20:47 32.7 °F 27.5 °F 29.44 in WNW 8.0 mph 12.0 mph 81 % 0.00 in 0 W/m2
20:49 32.7 °F 27.5 °F 29.44 in WNW 8.0 mph 12.0 mph 81 % 0.00 in 0 W/m2
20:54 32.7 °F 27.5 °F 29.44 in WNW 8.0 mph 12.0 mph 81 % 0.00 in 0 W/m2
20:55 32.7 °F 27.5 °F 29.44 in WNW 8.0 mph 12.0 mph 81 % 0.00 in 0 W/m2
21:00 32.7 °F 27.5 °F 29.44 in WNW 9.0 mph 13.0 mph 81 % 0.00 in 0 W/m2
21:05 32.9 °F 27.7 °F 29.44 in WNW 8.0 mph 11.0 mph 81 % 0.00 in 0 W/m2
21:10 32.9 °F 27.7 °F 29.45 in WNW 8.0 mph 12.0 mph 81 % 0.00 in 0 W/m2
21:11 32.9 °F 27.7 °F 29.45 in WNW 8.0 mph 12.0 mph 81 % 0.00 in 0 W/m2
21:16 32.9 °F 27.7 °F 29.45 in WNW 8.0 mph 10.0 mph 81 % 0.00 in 0 W/m2
21:17 32.9 °F 27.7 °F 29.45 in WNW 8.0 mph 10.0 mph 81 % 0.00 in 0 W/m2
21:18 32.9 °F 27.7 °F 29.45 in WNW 7.0 mph 10.0 mph 81 % 0.00 in 0 W/m2
21:23 32.9 °F 27.4 °F 29.44 in WNW 3.0 mph 6.0 mph 80 % 0.00 in 0 W/m2
21:28 32.7 °F 27.5 °F 29.44 in WNW 5.0 mph 7.0 mph 81 % 0.00 in 0 W/m2
21:29 32.7 °F 27.5 °F 29.44 in WNW 4.0 mph 7.0 mph 81 % 0.00 in 0 W/m2
21:34 32.5 °F 27.4 °F 29.44 in WNW 5.0 mph 8.0 mph 81 % 0.00 in 0 W/m2
21:35 32.5 °F 27.4 °F 29.44 in WNW 5.0 mph 8.0 mph 81 % 0.00 in 0 W/m2
21:40 32.5 °F 27.4 °F 29.44 in WNW 5.0 mph 8.0 mph 81 % 0.00 in 0 W/m2
21:44 32.5 °F 27.4 °F 29.44 in WNW 6.0 mph 9.0 mph 81 % 0.00 in 0 W/m2
21:46 32.5 °F 27.7 °F 29.44 in WNW 6.0 mph 10.0 mph 82 % 0.00 in 0 W/m2
21:50 32.5 °F 27.7 °F 29.44 in WNW 8.0 mph 11.0 mph 82 % 0.00 in 0 W/m2
21:53 32.5 °F 27.7 °F 29.44 in WNW 8.0 mph 10.0 mph 82 % 0.00 in 0 W/m2
21:58 32.5 °F 27.7 °F 29.44 in WNW 8.0 mph 12.0 mph 82 % 0.00 in 0 W/m2
22:04 32.7 °F 27.8 °F 29.45 in WNW 9.0 mph 13.0 mph 82 % 0.00 in 0 W/m2
22:09 32.9 °F 27.7 °F 29.45 in WNW 8.0 mph 13.0 mph 81 % 0.00 in 0 W/m2
22:10 32.9 °F 27.7 °F 29.45 in WNW 8.0 mph 12.0 mph 81 % 0.00 in 0 W/m2
22:11 32.9 °F 27.7 °F 29.45 in WNW 7.0 mph 10.0 mph 81 % 0.00 in 0 W/m2
22:15 32.9 °F 27.7 °F 29.45 in WNW 7.0 mph 10.0 mph 81 % 0.00 in 0 W/m2
22:20 33.1 °F 27.6 °F 29.45 in WNW 9.0 mph 15.0 mph 80 % 0.00 in 0 W/m2
22:26 33.1 °F 27.6 °F 29.45 in WNW 9.0 mph 12.0 mph 80 % 0.00 in 0 W/m2
22:27 33.3 °F 27.8 °F 29.45 in WNW 9.0 mph 15.0 mph 80 % 0.00 in 0 W/m2
22:32 33.3 °F 27.8 °F 29.45 in WNW 9.0 mph 13.0 mph 80 % 0.00 in 0 W/m2
22:37 33.3 °F 27.8 °F 29.45 in WNW 10.0 mph 14.0 mph 80 % 0.00 in 0 W/m2
22:39 33.3 °F 27.8 °F 29.46 in WNW 10.0 mph 16.0 mph 80 % 0.00 in 0 W/m2
22:43 33.3 °F 27.8 °F 29.46 in WNW 8.0 mph 16.0 mph 80 % 0.00 in 0 W/m2
22:45 33.4 °F 27.9 °F 29.46 in WNW 11.0 mph 16.0 mph 80 % 0.00 in 0 W/m2
22:50 33.4 °F 27.9 °F 29.46 in WNW 12.0 mph 16.0 mph 80 % 0.00 in 0 W/m2
22:55 33.6 °F 28.1 °F 29.46 in WNW 9.0 mph 15.0 mph 80 % 0.00 in 0 W/m2
23:00 33.6 °F 28.1 °F 29.46 in WNW 9.0 mph 12.0 mph 80 % 0.00 in 0 W/m2
23:05 33.4 °F 27.9 °F 29.46 in WNW 7.0 mph 14.0 mph 80 % 0.00 in 0 W/m2
23:06 33.4 °F 27.9 °F 29.46 in WNW 7.0 mph 12.0 mph 80 % 0.00 in 0 W/m2
23:11 33.4 °F 27.9 °F 29.46 in WNW 7.0 mph 11.0 mph 80 % 0.00 in 0 W/m2
23:13 33.4 °F 27.9 °F 29.46 in WNW 7.0 mph 10.0 mph 80 % 0.00 in 0 W/m2
23:18 33.3 °F 27.8 °F 29.46 in WNW 8.0 mph 13.0 mph 80 % 0.00 in 0 W/m2
23:19 33.3 °F 27.8 °F 29.46 in WNW 9.0 mph 13.0 mph 80 % 0.00 in 0 W/m2
23:21 33.3 °F 27.8 °F 29.46 in WNW 8.0 mph 14.0 mph 80 % 0.00 in 0 W/m2
23:24 33.3 °F 27.8 °F 29.46 in WNW 9.0 mph 14.0 mph 80 % 0.00 in 0 W/m2
23:29 33.1 °F 27.9 °F 29.45 in WNW 9.0 mph 12.0 mph 81 % 0.00 in 0 W/m2
23:34 33.1 °F 27.9 °F 29.46 in WNW 7.0 mph 9.0 mph 81 % 0.00 in 0 W/m2
23:39 32.9 °F 27.7 °F 29.46 in WNW 8.0 mph 10.0 mph 81 % 0.00 in 0 W/m2
23:40 32.7 °F 27.5 °F 29.46 in WNW 7.0 mph 10.0 mph 81 % 0.00 in 0 W/m2
23:45 32.7 °F 27.8 °F 29.46 in NW 7.0 mph 10.0 mph 82 % 0.00 in 0 W/m2
23:47 32.7 °F 27.8 °F 29.46 in WNW 7.0 mph 10.0 mph 82 % 0.00 in 0 W/m2
23:48 32.7 °F 27.8 °F 29.46 in WNW 6.0 mph 9.0 mph 82 % 0.00 in 0 W/m2
23:53 32.7 °F 27.8 °F 29.46 in WNW 6.0 mph 9.0 mph 82 % 0.00 in 0 W/m2
23:56 32.7 °F 27.8 °F 29.46 in WNW 7.0 mph 11.0 mph 82 % 0.00 in 0 W/m2
23:59 32.7 °F 28.1 °F 29.46 in WNW 8.0 mph 15.0 mph 83 % 0.00 in 0 W/m2
Delerius-Weather
Compliments of Weather Underground - 3 mb

Data updates at regular intervals.